Time;durP1;ratioP1;P1;durP2;ratioP2;P2;SDS_P1;SDS_P2;PMS_P1;PMS_P2;Temp;Humidity;BMP_temperature;BMP_pressure;BME280_temperature;BME280_humidity;BME280_pressure;Samples;Min_cycle;Max_cycle;Signal;HPM_P1;HPM_P2
2023/07/02 00:00:06;;;;;;;14.93;7.97;;;24.20;86.30;;;;;;5035269;28;20029;-73
2023/07/02 00:02:31;;;;;;;16.63;8.18;;;24.10;86.40;;;;;;5035006;28;20057;-75
2023/07/02 00:04:57;;;;;;;15.25;8.02;;;24.10;86.30;;;;;;5034807;28;20064;-73
2023/07/02 00:07:25;;;;;;;16.15;8.07;;;24.10;86.50;;;;;;5035077;28;20481;-73
2023/07/02 00:09:51;;;;;;;15.77;8.45;;;24.10;86.50;;;;;;5034706;28;20128;-74
2023/07/02 00:12:17;;;;;;;17.98;8.82;;;24.10;86.60;;;;;;5034874;28;20053;-74
2023/07/02 00:14:43;;;;;;;13.32;8.30;;;24.00;86.70;;;;;;5034670;28;20108;-74
2023/07/02 00:17:12;;;;;;;19.88;8.98;;;24.00;86.60;;;;;;5035070;28;20406;-73
2023/07/02 00:19:41;;;;;;;17.90;9.35;;;24.00;86.90;;;;;;5034819;28;20391;-74
2023/07/02 00:22:07;;;;;;;17.65;8.65;;;24.10;87.00;;;;;;5034641;28;20033;-73
2023/07/02 00:24:33;;;;;;;19.58;9.43;;;24.10;86.90;;;;;;5034462;28;20025;-74
2023/07/02 00:26:59;;;;;;;18.23;9.38;;;24.10;87.10;;;;;;5034975;28;20041;-73
2023/07/02 00:29:24;;;;;;;17.90;9.73;;;24.00;86.80;;;;;;5046466;28;20515;-75
2023/07/02 00:31:50;;;;;;;16.52;8.70;;;24.00;87.00;;;;;;5035407;28;20164;-75
2023/07/02 00:34:16;;;;;;;16.65;8.85;;;24.00;87.10;;;;;;5034634;28;20152;-74
2023/07/02 00:36:42;;;;;;;16.88;8.85;;;24.00;87.10;;;;;;5034578;28;20040;-75
2023/07/02 00:39:08;;;;;;;17.38;8.27;;;23.90;87.30;;;;;;5034497;28;20041;-74
2023/07/02 00:41:33;;;;;;;14.63;8.13;;;23.90;87.30;;;;;;5034319;28;20036;-73
2023/07/02 00:43:59;;;;;;;21.20;8.57;;;24.00;87.40;;;;;;5033526;28;20049;-73
2023/07/02 00:46:26;;;;;;;19.95;8.40;;;23.90;87.40;;;;;;5034380;28;20029;-74
2023/07/02 00:48:53;;;;;;;20.67;9.25;;;23.90;87.30;;;;;;5034008;28;20049;-74
2023/07/02 00:51:24;;;;;;;22.35;9.23;;;23.90;87.40;;;;;;5034116;28;20399;-74
2023/07/02 00:53:51;;;;;;;18.98;9.20;;;23.90;87.50;;;;;;5033923;28;20121;-74
2023/07/02 00:56:18;;;;;;;19.38;10.05;;;23.90;87.80;;;;;;5033991;28;20076;-74
2023/07/02 00:58:50;;;;;;;21.52;11.45;;;23.90;88.10;;;;;;5033567;28;20521;-74
2023/07/02 01:01:21;;;;;;;20.50;11.52;;;23.90;88.10;;;;;;5033505;28;20033;-74
2023/07/02 01:03:52;;;;;;;21.48;11.00;;;23.90;88.20;;;;;;5033667;28;20033;-74
2023/07/02 01:06:19;;;;;;;20.02;10.38;;;23.80;88.10;;;;;;5033859;28;20029;-74
2023/07/02 01:08:45;;;;;;;17.70;9.50;;;23.80;88.30;;;;;;5033746;28;20056;-74
2023/07/02 01:11:11;;;;;;;18.23;9.10;;;23.80;88.30;;;;;;5033724;28;20034;-74
2023/07/02 01:13:37;;;;;;;16.83;8.77;;;23.80;88.30;;;;;;5033417;28;20522;-74
2023/07/02 01:16:03;;;;;;;18.70;9.43;;;23.90;88.40;;;;;;5033662;28;20055;-74
2023/07/02 01:18:29;;;;;;;19.85;9.38;;;23.90;88.20;;;;;;5033634;28;20071;-74
2023/07/02 01:20:56;;;;;;;20.77;9.02;;;23.90;88.00;;;;;;5033741;28;20384;-74
2023/07/02 01:23:21;;;;;;;14.68;8.68;;;23.90;87.70;;;;;;5033393;28;20196;-74
2023/07/02 01:25:47;;;;;;;17.25;8.88;;;23.90;88.00;;;;;;5033639;28;20112;-73
2023/07/02 01:28:13;;;;;;;17.98;8.80;;;23.90;88.10;;;;;;5033064;28;20041;-73
2023/07/02 01:30:40;;;;;;;19.50;8.98;;;23.90;87.90;;;;;;5033521;28;20041;-73
2023/07/02 01:33:05;;;;;;;17.25;9.20;;;23.90;87.70;;;;;;5033268;28;20096;-74
2023/07/02 01:35:31;;;;;;;15.77;8.48;;;23.80;88.00;;;;;;5033569;28;20029;-74
2023/07/02 01:37:57;;;;;;;17.23;8.55;;;23.60;88.50;;;;;;5033322;28;20069;-74
2023/07/02 01:40:22;;;;;;;16.67;8.80;;;23.60;88.80;;;;;;5033401;28;20112;-73
2023/07/02 01:42:48;;;;;;;16.45;8.20;;;23.60;88.80;;;;;;5032966;28;20041;-73
2023/07/02 01:45:14;;;;;;;16.48;8.45;;;23.60;88.80;;;;;;5032980;28;20498;-74
2023/07/02 01:47:40;;;;;;;13.88;8.27;;;23.70;88.80;;;;;;5032906;28;20045;-75
2023/07/02 01:50:07;;;;;;;15.90;9.77;;;23.70;88.80;;;;;;5033381;28;20041;-75
2023/07/02 01:52:33;;;;;;;23.73;12.18;;;23.70;89.00;;;;;;5032862;28;20029;-73
2023/07/02 01:55:00;;;;;;;19.80;12.48;;;23.70;89.10;;;;;;5015600;28;20045;-73
2023/07/02 01:57:26;;;;;;;23.15;13.30;;;23.60;89.10;;;;;;5032775;28;20029;-72
2023/07/02 01:59:52;;;;;;;30.42;13.18;;;23.50;89.30;;;;;;5032940;28;20444;-73
2023/07/02 02:02:17;;;;;;;23.00;13.43;;;23.40;89.60;;;;;;5032570;28;20044;-73
2023/07/02 02:04:43;;;;;;;28.05;14.07;;;23.40;89.80;;;;;;5032844;28;20067;-74
2023/07/02 02:07:09;;;;;;;21.48;13.55;;;23.40;90.00;;;;;;5032239;28;20490;-73
2023/07/02 02:09:35;;;;;;;29.65;13.82;;;23.30;90.00;;;;;;5032514;28;20490;-72
2023/07/02 02:12:00;;;;;;;25.77;13.82;;;23.30;90.20;;;;;;5032557;28;20034;-73
2023/07/02 02:14:26;;;;;;;28.52;13.20;;;23.30;90.20;;;;;;5034976;28;20057;-74
2023/07/02 02:16:52;;;;;;;24.25;12.20;;;23.30;90.10;;;;;;5040491;28;20033;-74
2023/07/02 02:19:17;;;;;;;24.70;12.65;;;23.30;90.00;;;;;;5046745;28;20029;-74
2023/07/02 02:21:43;;;;;;;24.40;10.93;;;23.30;90.10;;;;;;5032477;28;20113;-73
2023/07/02 02:24:10;;;;;;;20.00;11.55;;;23.30;90.00;;;;;;5032467;28;20029;-73
2023/07/02 02:26:36;;;;;;;19.92;10.07;;;23.40;90.00;;;;;;5014836;28;20088;-74
2023/07/02 02:29:01;;;;;;;20.20;9.70;;;23.40;89.90;;;;;;5032270;28;20049;-74
2023/07/02 02:31:28;;;;;;;21.33;10.45;;;23.30;89.80;;;;;;5032274;28;20033;-72
2023/07/02 02:33:54;;;;;;;21.15;10.30;;;23.30;89.70;;;;;;5032302;28;20121;-74
2023/07/02 02:36:19;;;;;;;26.58;10.40;;;23.20;90.20;;;;;;5032403;28;20487;-73
2023/07/02 02:38:45;;;;;;;21.63;9.80;;;23.10;90.10;;;;;;5032336;28;20045;-74
2023/07/02 02:41:11;;;;;;;18.17;9.75;;;23.10;90.30;;;;;;5032222;28;20060;-75
2023/07/02 02:43:37;;;;;;;19.80;9.90;;;23.00;90.30;;;;;;5032106;28;20037;-74
2023/07/02 02:46:02;;;;;;;16.80;8.90;;;23.00;90.30;;;;;;5031681;28;20036;-73
2023/07/02 02:48:28;;;;;;;19.98;9.45;;;23.00;90.40;;;;;;5032447;28;20403;-74
2023/07/02 02:50:54;;;;;;;18.10;9.18;;;23.00;90.40;;;;;;5014300;28;20036;-73
2023/07/02 02:53:19;;;;;;;19.48;9.40;;;23.00;90.40;;;;;;5032550;28;20034;-73
2023/07/02 02:55:45;;;;;;;18.63;9.63;;;23.00;90.20;;;;;;5032012;28;20526;-73
2023/07/02 02:58:11;;;;;;;23.50;8.98;;;23.00;90.20;;;;;;5032336;28;20124;-73
2023/07/02 03:00:38;;;;;;;15.75;8.32;;;23.00;90.20;;;;;;5032250;28;20036;-73
2023/07/02 03:03:03;;;;;;;17.75;8.73;;;23.00;90.20;;;;;;5032065;28;20037;-74
2023/07/02 03:05:29;;;;;;;17.27;8.15;;;23.00;90.10;;;;;;5032064;28;20032;-74
2023/07/02 03:07:55;;;;;;;15.02;8.05;;;22.90;90.10;;;;;;5033692;28;20107;-74
2023/07/02 03:10:21;;;;;;;19.15;8.00;;;22.90;90.20;;;;;;5035940;28;20036;-74
2023/07/02 03:12:47;;;;;;;14.88;7.95;;;22.90;90.40;;;;;;5018012;28;20046;-73
2023/07/02 03:15:13;;;;;;;13.23;6.82;;;22.80;90.40;;;;;;5035625;28;20057;-73
2023/07/02 03:17:39;;;;;;;17.95;7.60;;;22.80;90.40;;;;;;5035605;28;20115;-73
2023/07/02 03:20:07;;;;;;;12.20;7.00;;;22.80;90.40;;;;;;5035928;28;20490;-73
2023/07/02 03:22:33;;;;;;;17.38;7.55;;;22.80;90.40;;;;;;5035880;28;20141;-74
2023/07/02 03:24:59;;;;;;;20.52;6.95;;;22.80;90.20;;;;;;5035627;28;20420;-73
2023/07/02 03:27:25;;;;;;;14.77;6.45;;;22.80;90.20;;;;;;5017834;28;20056;-73
2023/07/02 03:29:52;;;;;;;14.63;6.55;;;22.80;90.20;;;;;;5035171;28;20405;-73
2023/07/02 03:32:18;;;;;;;16.13;6.53;;;22.80;90.20;;;;;;5035874;28;20529;-73
2023/07/02 03:34:43;;;;;;;13.75;6.53;;;22.80;90.20;;;;;;5035231;28;20061;-73
2023/07/02 03:37:09;;;;;;;22.75;6.88;;;22.70;90.30;;;;;;5035461;28;20040;-74
2023/07/02 03:39:35;;;;;;;13.82;6.32;;;22.60;90.50;;;;;;5035353;28;20037;-73
2023/07/02 03:42:00;;;;;;;19.35;6.38;;;22.60;90.50;;;;;;5035174;28;20048;-73
2023/07/02 03:44:26;;;;;;;14.27;6.45;;;22.50;90.60;;;;;;5034614;28;20049;-73
2023/07/02 03:46:52;;;;;;;17.83;7.10;;;22.50;90.60;;;;;;5035017;28;20450;-73
2023/07/02 03:49:18;;;;;;;14.63;6.63;;;22.60;90.50;;;;;;5035488;28;20044;-73
2023/07/02 03:51:43;;;;;;;12.25;6.50;;;22.60;90.40;;;;;;5035294;28;20036;-74
2023/07/02 03:54:09;;;;;;;17.88;6.60;;;22.60;90.40;;;;;;5034728;28;20041;-73
2023/07/02 03:56:35;;;;;;;17.92;6.70;;;22.70;90.40;;;;;;5035073;28;20033;-73
2023/07/02 03:59:00;;;;;;;11.15;6.45;;;22.80;90.20;;;;;;5017009;28;20500;-74
2023/07/02 04:01:26;;;;;;;13.95;6.43;;;22.80;90.20;;;;;;5017417;28;20029;-73
2023/07/02 04:03:53;;;;;;;15.43;6.40;;;22.80;90.10;;;;;;5017245;28;20041;-75
2023/07/02 04:06:19;;;;;;;16.23;7.10;;;22.80;90.10;;;;;;5040008;28;20014;-74
2023/07/02 04:08:45;;;;;;;13.50;6.53;;;22.80;90.00;;;;;;5052425;28;20124;-74
2023/07/02 04:11:12;;;;;;;15.23;6.80;;;22.90;90.00;;;;;;5035157;28;20030;-74
2023/07/02 04:13:38;;;;;;;12.70;6.03;;;22.90;89.90;;;;;;5034780;28;20060;-74
2023/07/02 04:16:04;;;;;;;14.02;6.68;;;22.90;89.80;;;;;;5034938;28;20037;-74
2023/07/02 04:18:30;;;;;;;12.98;6.43;;;22.90;89.70;;;;;;5034207;28;20407;-73
2023/07/02 04:20:56;;;;;;;11.52;5.53;;;23.00;89.60;;;;;;5034141;28;20052;-74
2023/07/02 04:23:22;;;;;;;12.95;6.25;;;23.00;89.50;;;;;;5034568;28;20056;-73
2023/07/02 04:25:47;;;;;;;17.00;6.40;;;23.00;89.50;;;;;;5034324;28;20452;-73
2023/07/02 04:28:13;;;;;;;12.82;6.13;;;23.00;89.70;;;;;;5034281;28;20399;-74
2023/07/02 04:30:39;;;;;;;15.02;6.60;;;23.00;89.60;;;;;;5034798;28;20040;-74
2023/07/02 04:33:07;;;;;;;12.27;6.53;;;23.00;89.40;;;;;;5034421;28;20034;-74
2023/07/02 04:35:34;;;;;;;13.50;6.47;;;23.00;89.60;;;;;;5034159;28;20034;-74
2023/07/02 04:38:00;;;;;;;21.05;7.05;;;23.00;89.60;;;;;;5034124;28;20124;-73
2023/07/02 04:40:27;;;;;;;15.25;6.40;;;22.90;89.70;;;;;;5034019;28;20026;-72
2023/07/02 04:42:57;;;;;;;15.73;6.20;;;22.90;89.80;;;;;;5034258;28;20095;-74
2023/07/02 04:45:24;;;;;;;17.92;6.13;;;22.80;90.00;;;;;;5035900;28;20060;-73
2023/07/02 04:47:50;;;;;;;13.20;5.88;;;22.80;90.00;;;;;;5035814;28;20037;-74
2023/07/02 04:50:17;;;;;;;18.55;7.53;;;22.90;90.00;;;;;;5034033;28;20040;-74
2023/07/02 04:52:43;;;;;;;15.23;6.43;;;22.90;90.00;;;;;;5034097;28;20037;-73
2023/07/02 04:55:08;;;;;;;13.52;6.05;;;22.90;90.00;;;;;;5033744;28;20030;-73
2023/07/02 04:57:34;;;;;;;13.57;5.97;;;22.90;90.00;;;;;;5033953;28;20399;-73
2023/07/02 05:00:00;;;;;;;11.57;6.03;;;22.90;90.00;;;;;;5033410;28;20087;-73
2023/07/02 05:02:26;;;;;;;13.75;5.60;;;22.90;89.90;;;;;;5033909;28;20037;-74
2023/07/02 05:04:51;;;;;;;12.00;6.28;;;23.00;89.50;;;;;;5015827;28;20413;-73
2023/07/02 05:07:17;;;;;;;11.65;6.15;;;23.10;89.60;;;;;;5033481;28;20072;-73
2023/07/02 05:09:43;;;;;;;12.35;6.97;;;23.10;89.20;;;;;;5033445;28;20487;-73
2023/07/02 05:12:09;;;;;;;14.15;6.15;;;23.10;89.40;;;;;;5033470;28;20064;-73
2023/07/02 05:14:35;;;;;;;13.07;6.03;;;23.30;89.20;;;;;;5033526;28;20494;-75
2023/07/02 05:17:01;;;;;;;16.10;6.15;;;23.40;88.70;;;;;;5033267;28;20048;-74
2023/07/02 05:19:26;;;;;;;13.85;6.05;;;23.50;88.30;;;;;;5015663;28;20057;-74
2023/07/02 05:21:52;;;;;;;13.60;6.15;;;23.80;88.10;;;;;;5033121;28;20131;-74
2023/07/02 05:24:18;;;;;;;15.27;5.80;;;24.00;87.10;;;;;;5032977;28;20496;-73
2023/07/02 05:26:44;;;;;;;14.27;5.90;;;24.30;86.40;;;;;;5032893;28;20041;-74
2023/07/02 05:29:10;;;;;;;12.82;5.75;;;24.70;85.10;;;;;;5032582;28;20069;-74
2023/07/02 05:31:35;;;;;;;10.07;5.97;;;25.20;83.70;;;;;;5033020;28;20364;-74
2023/07/02 05:34:01;;;;;;;11.43;5.93;;;25.60;82.20;;;;;;5032999;28;20037;-73
2023/07/02 05:36:27;;;;;;;13.23;6.40;;;25.90;80.90;;;;;;5033148;28;20579;-74
2023/07/02 05:38:53;;;;;;;11.38;5.88;;;26.10;79.70;;;;;;5032621;28;20036;-74
2023/07/02 05:41:20;;;;;;;12.32;5.47;;;26.20;79.40;;;;;;5015136;28;20056;-74
2023/07/02 05:43:46;;;;;;;10.95;5.32;;;26.50;78.50;;;;;;5032940;28;20095;-74
2023/07/02 05:46:15;;;;;;;10.15;5.72;;;26.70;77.50;;;;;;5014959;28;20037;-75
2023/07/02 05:48:41;;;;;;;11.10;5.25;;;26.80;76.90;;;;;;5032627;28;20046;-73
2023/07/02 05:51:07;;;;;;;12.27;5.88;;;27.10;76.30;;;;;;5032607;28;20135;-74
2023/07/02 05:53:33;;;;;;;10.00;5.15;;;27.40;75.20;;;;;;5032511;28;20175;-74
2023/07/02 05:55:59;;;;;;;11.90;5.18;;;27.70;74.50;;;;;;5033120;28;20083;-73
2023/07/02 05:58:25;;;;;;;13.90;5.28;;;28.00;73.80;;;;;;5035809;28;20033;-74
2023/07/02 06:00:51;;;;;;;10.07;5.10;;;28.10;72.90;;;;;;5033095;28;20387;-73
2023/07/02 06:03:20;;;;;;;12.45;5.60;;;28.40;72.50;;;;;;5032365;28;20411;-73
2023/07/02 06:05:47;;;;;;;14.15;5.20;;;28.60;71.80;;;;;;5014586;28;20136;-75
2023/07/02 06:08:14;;;;;;;13.35;5.47;;;28.80;71.60;;;;;;5032374;28;20041;-73
2023/07/02 06:10:39;;;;;;;12.93;5.32;;;29.00;70.90;;;;;;5032342;28;20030;-74
2023/07/02 06:13:05;;;;;;;12.10;5.18;;;29.10;70.00;;;;;;5032148;28;20109;-73
2023/07/02 06:15:31;;;;;;;14.65;5.45;;;29.30;69.60;;;;;;5014416;28;20036;-74
2023/07/02 06:17:56;;;;;;;11.68;5.15;;;29.30;69.00;;;;;;5032319;28;20037;-75
2023/07/02 06:20:22;;;;;;;14.25;5.32;;;29.40;68.90;;;;;;5032312;28;20083;-74
2023/07/02 06:22:48;;;;;;;10.15;5.55;;;29.40;68.50;;;;;;5032070;28;20046;-74
2023/07/02 06:25:14;;;;;;;11.90;5.38;;;29.50;67.90;;;;;;5031945;28;20441;-73
2023/07/02 06:27:39;;;;;;;13.57;5.55;;;29.70;67.50;;;;;;5032165;28;20037;-74
2023/07/02 06:30:06;;;;;;;11.30;5.55;;;29.90;67.00;;;;;;5032255;28;20091;-74
2023/07/02 06:32:32;;;;;;;15.23;5.43;;;30.00;66.50;;;;;;5032047;28;20368;-75
2023/07/02 06:34:58;;;;;;;14.38;5.95;;;30.20;66.70;;;;;;5032214;28;20041;-74
2023/07/02 06:37:23;;;;;;;12.15;5.57;;;30.20;65.80;;;;;;5032175;28;20124;-76
2023/07/02 06:39:49;;;;;;;10.95;5.50;;;30.30;65.40;;;;;;5032326;28;20150;-74
2023/07/02 06:42:15;;;;;;;12.52;5.65;;;30.30;65.70;;;;;;5014962;28;20033;-75
2023/07/02 06:44:41;;;;;;;10.50;5.95;;;30.40;65.30;;;;;;5036259;28;20085;-74
2023/07/02 06:47:07;;;;;;;14.95;6.50;;;30.60;65.20;;;;;;5035876;28;20029;-75
2023/07/02 06:49:33;;;;;;;11.32;6.22;;;30.60;64.20;;;;;;5036626;28;20376;-75
2023/07/02 06:52:01;;;;;;;11.95;5.90;;;30.50;64.20;;;;;;5036274;28;20108;-74
2023/07/02 06:54:27;;;;;;;12.50;6.07;;;30.60;63.90;;;;;;5036302;28;20085;-75
2023/07/02 06:56:53;;;;;;;10.88;5.93;;;30.50;63.60;;;;;;5036060;28;20041;-75
2023/07/02 06:59:22;;;;;;;15.60;5.80;;;30.40;63.80;;;;;;5035926;28;20042;-74
2023/07/02 07:01:49;;;;;;;15.63;6.05;;;30.40;63.90;;;;;;5036411;28;20028;-75
2023/07/02 07:04:15;;;;;;;13.25;7.00;;;30.30;64.20;;;;;;5035961;28;20034;-73
2023/07/02 07:06:42;;;;;;;12.50;5.30;;;30.40;63.50;;;;;;5035880;28;20039;-74
2023/07/02 07:09:08;;;;;;;10.82;5.95;;;30.60;63.30;;;;;;5017835;28;20084;-75
2023/07/02 07:11:33;;;;;;;17.45;7.00;;;30.70;63.00;;;;;;5035908;28;20061;-74
2023/07/02 07:13:59;;;;;;;14.23;6.25;;;30.70;63.20;;;;;;5035428;28;20029;-75
2023/07/02 07:16:25;;;;;;;10.68;5.57;;;30.50;63.00;;;;;;5017859;28;20087;-75
2023/07/02 07:18:50;;;;;;;14.40;6.80;;;30.40;63.30;;;;;;5035736;28;20071;-74
2023/07/02 07:21:16;;;;;;;13.43;5.30;;;30.50;63.00;;;;;;5035561;28;20029;-74
2023/07/02 07:23:42;;;;;;;13.13;5.90;;;30.60;62.50;;;;;;5035745;28;20044;-74
2023/07/02 07:26:08;;;;;;;12.25;5.57;;;30.60;62.60;;;;;;5035434;28;20606;-74
2023/07/02 07:28:33;;;;;;;10.68;5.57;;;30.50;63.00;;;;;;5035344;28;20410;-75
2023/07/02 07:30:59;;;;;;;12.25;5.35;;;30.70;62.70;;;;;;5017285;28;20091;-75
2023/07/02 07:33:25;;;;;;;11.43;5.03;;;30.70;62.20;;;;;;5017752;28;20041;-74
2023/07/02 07:35:51;;;;;;;12.48;5.82;;;30.80;62.20;;;;;;5035280;28;20025;-74
2023/07/02 07:38:16;;;;;;;11.35;5.38;;;30.90;61.90;;;;;;5035486;28;20115;-76
2023/07/02 07:40:43;;;;;;;10.68;5.53;;;30.80;61.60;;;;;;5035475;28;20033;-76
2023/07/02 07:43:08;;;;;;;12.30;6.18;;;30.50;61.90;;;;;;5035266;28;20374;-74
2023/07/02 07:45:34;;;;;;;11.45;5.72;;;30.40;62.20;;;;;;5035997;28;20128;-74
2023/07/02 07:48:00;;;;;;;10.05;5.07;;;30.40;62.50;;;;;;5055452;28;20026;-75
2023/07/02 07:50:26;;;;;;;10.52;5.35;;;30.50;62.40;;;;;;5042282;28;20030;-74
2023/07/02 07:52:52;;;;;;;13.98;5.85;;;30.60;62.20;;;;;;5036222;28;20030;-75
2023/07/02 07:55:17;;;;;;;13.32;6.15;;;30.50;61.90;;;;;;5035545;28;20093;-76
2023/07/02 07:57:43;;;;;;;7.95;5.10;;;30.40;61.70;;;;;;5034894;28;20037;-75
2023/07/02 08:00:09;;;;;;;14.07;5.38;;;30.20;61.80;;;;;;5035160;28;20479;-75
2023/07/02 08:02:35;;;;;;;11.00;5.10;;;30.10;62.10;;;;;;5035028;28;20041;-75
2023/07/02 08:05:02;;;;;;;10.18;5.80;;;30.10;62.20;;;;;;5035351;28;20037;-75
2023/07/02 08:07:27;;;;;;;10.60;5.90;;;30.10;62.20;;;;;;5034630;28;20034;-75
2023/07/02 08:09:53;;;;;;;11.73;5.28;;;30.20;62.10;;;;;;5034725;28;20046;-73
2023/07/02 08:12:19;;;;;;;11.27;5.53;;;30.20;62.10;;;;;;5035076;28;20103;-75
2023/07/02 08:14:44;;;;;;;14.27;9.35;;;30.00;62.10;;;;;;5035124;28;20099;-75
2023/07/02 08:17:10;;;;;;;11.68;6.07;;;29.90;62.70;;;;;;5034667;28;20041;-75
2023/07/02 08:19:36;;;;;;;9.63;5.78;;;29.80;63.40;;;;;;5034776;28;20052;-75
2023/07/02 08:22:02;;;;;;;11.75;6.10;;;29.70;63.40;;;;;;5034895;28;20108;-75
2023/07/02 08:24:28;;;;;;;12.23;7.15;;;29.60;63.50;;;;;;5034495;28;20053;-74
2023/07/02 08:26:54;;;;;;;12.18;5.72;;;29.50;63.90;;;;;;5034724;28;20095;-75
2023/07/02 08:29:19;;;;;;;12.68;5.57;;;29.50;64.80;;;;;;5034623;28;20522;-75
2023/07/02 08:31:45;;;;;;;11.20;7.28;;;29.40;64.30;;;;;;5034870;28;20038;-74
2023/07/02 08:34:11;;;;;;;9.55;5.13;;;29.30;64.70;;;;;;5034580;28;20055;-75
2023/07/02 08:36:36;;;;;;;9.63;5.50;;;29.10;64.00;;;;;;5034493;28;20034;-74
2023/07/02 08:39:03;;;;;;;11.98;5.72;;;28.80;64.40;;;;;;5034489;28;20512;-76
2023/07/02 08:41:29;;;;;;;10.63;7.72;;;28.60;64.50;;;;;;5034533;28;20029;-74
2023/07/02 08:43:56;;;;;;;9.50;5.57;;;28.60;64.50;;;;;;5034007;28;20136;-74
2023/07/02 08:46:22;;;;;;;7.90;4.97;;;28.60;64.10;;;;;;5033985;28;20041;-75
2023/07/02 08:48:48;;;;;;;8.15;5.35;;;28.60;63.80;;;;;;5034295;28;20042;-74
2023/07/02 08:51:13;;;;;;;9.32;5.32;;;28.60;63.60;;;;;;5034281;28;20071;-75
2023/07/02 08:53:39;;;;;;;7.88;5.07;;;28.70;63.50;;;;;;5034034;28;20091;-78
2023/07/02 08:56:05;;;;;;;7.53;5.03;;;28.70;62.50;;;;;;5033940;28;20376;-75
2023/07/02 08:58:31;;;;;;;8.93;5.80;;;28.70;62.70;;;;;;5033660;28;20049;-76
2023/07/02 09:01:07;;;;;;;10.48;5.28;;;28.70;62.70;;;;;;5034089;28;20121;-75
2023/07/02 09:03:33;;;;;;;11.48;5.63;;;28.70;62.40;;;;;;5016015;28;20037;-74
2023/07/02 09:05:59;;;;;;;9.80;5.45;;;28.40;62.70;;;;;;5032830;28;20391;-75
2023/07/02 09:08:26;;;;;;;8.38;5.47;;;28.40;63.70;;;;;;5033225;28;20535;-76
2023/07/02 09:10:52;;;;;;;9.10;5.47;;;28.40;64.10;;;;;;5033028;28;20069;-76
2023/07/02 09:13:17;;;;;;;11.55;5.50;;;28.40;64.20;;;;;;5033367;28;20057;-73
2023/07/02 09:15:43;;;;;;;9.35;5.72;;;28.40;64.60;;;;;;5033346;28;20033;-75
2023/07/02 09:18:19;;;;;;;8.88;5.55;;;28.40;64.70;;;;;;5033275;28;20527;-74
2023/07/02 09:20:45;;;;;;;11.48;6.22;;;28.40;65.30;;;;;;5033255;28;20087;-74
2023/07/02 09:23:11;;;;;;;9.55;5.93;;;28.40;64.90;;;;;;5033012;28;20132;-75
2023/07/02 09:25:38;;;;;;;11.73;6.47;;;28.40;65.00;;;;;;5015196;28;20037;-75
2023/07/02 09:28:17;;;;;;;9.93;5.93;;;28.50;64.90;;;;;;5032742;28;20060;-75
2023/07/02 09:30:56;;;;;;;12.10;6.25;;;28.60;64.80;;;;;;5032972;28;20076;-75
2023/07/02 09:33:25;;;;;;;12.15;6.30;;;28.50;64.90;;;;;;5032988;28;20057;-75
2023/07/02 09:35:51;;;;;;;11.15;6.55;;;28.60;64.30;;;;;;5015030;28;20052;-75
2023/07/02 09:38:19;;;;;;;8.65;6.13;;;28.60;64.90;;;;;;5033076;28;20029;-75
2023/07/02 09:40:50;;;;;;;11.07;5.85;;;28.70;64.20;;;;;;5032928;28;20511;-75
2023/07/02 09:43:17;;;;;;;10.00;5.65;;;28.70;64.20;;;;;;5032593;28;20046;-76
2023/07/02 09:45:45;;;;;;;8.20;5.63;;;28.60;64.30;;;;;;5032533;28;20037;-74
2023/07/02 09:48:15;;;;;;;9.68;6.20;;;28.60;64.40;;;;;;5032708;28;20049;-75
2023/07/02 09:50:46;;;;;;;10.80;6.60;;;28.50;64.60;;;;;;5032526;28;20434;-75
2023/07/02 09:53:12;;;;;;;9.40;5.93;;;28.50;64.70;;;;;;5032649;28;20042;-74
2023/07/02 09:55:39;;;;;;;9.52;6.03;;;28.60;65.10;;;;;;5032662;28;20091;-74
2023/07/02 09:58:06;;;;;;;10.25;6.10;;;28.70;64.90;;;;;;5032556;28;20104;-75
2023/07/02 10:00:32;;;;;;;9.98;6.10;;;28.80;64.50;;;;;;5014708;28;20045;-75
2023/07/02 10:02:57;;;;;;;10.13;5.38;;;28.70;63.90;;;;;;5032350;28;20507;-75
2023/07/02 10:05:29;;;;;;;10.50;5.72;;;28.80;64.40;;;;;;5032487;28;20057;-74
2023/07/02 10:07:59;;;;;;;8.27;5.72;;;28.80;62.90;;;;;;5032382;28;20095;-75
2023/07/02 10:10:29;;;;;;;10.27;5.50;;;28.90;63.50;;;;;;5032631;28;20033;-77
2023/07/02 10:12:55;;;;;;;11.93;6.20;;;28.80;61.70;;;;;;5032303;28;20056;-76
2023/07/02 10:15:28;;;;;;;11.63;6.25;;;28.80;62.00;;;;;;5032705;28;20488;-78
2023/07/02 10:17:54;;;;;;;;;;;28.80;62.40;;;;;;5031998;28;20042;-74
2023/07/02 10:20:35;;;;;;;7.88;5.13;;;28.80;62.60;;;;;;5032489;28;20271;-74
2023/07/02 10:23:01;;;;;;;9.07;5.40;;;28.90;61.90;;;;;;5032359;28;20476;-75
2023/07/02 10:25:53;;;;;;;9.68;5.95;;;28.90;60.10;;;;;;5032111;28;20025;-75
2023/07/02 10:28:26;;;;;;;8.65;5.60;;;28.90;59.70;;;;;;5028497;28;20522;-75
2023/07/02 10:30:53;;;;;;;9.30;4.82;;;29.00;59.30;;;;;;5032472;28;20042;-75
2023/07/02 10:33:19;;;;;;;9.20;6.20;;;29.00;59.50;;;;;;5031943;28;20038;-75
2023/07/02 10:35:48;;;;;;;9.10;5.47;;;29.10;59.90;;;;;;5032091;28;20041;-75
2023/07/02 10:38:17;;;;;;;10.85;6.35;;;29.20;59.60;;;;;;5032085;28;20042;-76
2023/07/02 10:40:43;;;;;;;10.18;6.03;;;29.30;60.00;;;;;;5032244;28;20041;-76
2023/07/02 10:43:09;;;;;;;9.38;5.40;;;29.30;60.10;;;;;;5031972;28;20030;-75
2023/07/02 10:45:36;;;;;;;8.52;5.50;;;29.30;59.30;;;;;;5031801;28;20491;-76
2023/07/02 10:48:10;;;;;;;8.85;5.53;;;29.30;59.60;;;;;;5014557;28;20049;-75
2023/07/02 10:50:36;;;;;;;8.85;5.70;;;29.40;60.20;;;;;;5032139;28;20029;-75
2023/07/02 10:53:02;;;;;;;14.00;6.28;;;29.50;59.10;;;;;;5032196;28;20044;-75
2023/07/02 10:55:29;;;;;;;9.57;5.60;;;29.60;58.40;;;;;;5031993;28;20041;-76
2023/07/02 10:58:06;;;;;;;8.68;5.38;;;29.60;57.50;;;;;;5031930;28;20021;-75
2023/07/02 11:00:32;;;;;;;9.93;6.53;;;29.60;57.60;;;;;;5032227;28;20084;-76
2023/07/02 11:02:58;;;;;;;9.48;6.03;;;29.50;57.10;;;;;;5032156;28;20029;-76
2023/07/02 11:05:24;;;;;;;14.07;6.47;;;29.50;57.50;;;;;;5032002;28;20124;-75
2023/07/02 11:07:56;;;;;;;12.80;6.00;;;29.60;58.00;;;;;;5032031;28;20219;-76
2023/07/02 11:10:23;;;;;;;9.77;5.63;;;29.60;59.10;;;;;;5031761;28;20374;-76
2023/07/02 11:12:49;;;;;;;24.92;17.63;;;29.70;59.70;;;;;;5031713;28;20260;-74
2023/07/02 11:15:17;;;;;;;8.63;5.97;;;29.80;60.10;;;;;;5031731;28;20038;-75
2023/07/02 11:17:43;;;;;;;12.98;6.25;;;29.70;60.40;;;;;;5014136;28;20491;-75
2023/07/02 11:20:10;;;;;;;10.05;5.72;;;29.80;60.50;;;;;;5031932;28;20040;-75
2023/07/02 11:22:37;;;;;;;11.90;5.97;;;29.80;60.60;;;;;;5031949;28;20052;-76
2023/07/02 11:25:16;;;;;;;8.02;5.65;;;29.90;60.20;;;;;;5031702;28;20037;-75
2023/07/02 11:27:42;;;;;;;10.70;6.15;;;30.00;60.70;;;;;;5031900;28;20060;-76
2023/07/02 11:30:08;;;;;;;11.05;7.07;;;30.10;60.40;;;;;;5035606;28;20037;-76
2023/07/02 11:32:56;;;;;;;11.00;6.50;;;30.20;60.70;;;;;;5035756;28;20554;-75
2023/07/02 11:35:27;;;;;;;12.15;6.10;;;30.30;60.60;;;;;;5035786;28;20041;-76
2023/07/02 11:37:53;;;;;;;11.45;8.48;;;30.40;60.00;;;;;;5035586;28;20032;-76
2023/07/02 11:40:19;;;;;;;9.80;5.25;;;30.50;59.60;;;;;;5035649;28;20029;-75
2023/07/02 11:42:44;;;;;;;11.13;5.47;;;30.40;60.40;;;;;;5035202;28;20564;-75
2023/07/02 11:45:10;;;;;;;11.45;5.72;;;30.40;59.70;;;;;;5035285;28;20201;-76
2023/07/02 11:47:37;;;;;;;11.70;5.53;;;30.40;60.20;;;;;;5035283;28;20041;-76
2023/07/02 11:50:05;;;;;;;10.13;5.32;;;30.30;60.30;;;;;;5035142;28;20048;-76
2023/07/02 11:52:31;;;;;;;9.05;5.10;;;30.40;61.00;;;;;;5035037;28;20033;-77
2023/07/02 11:54:57;;;;;;;8.18;5.25;;;30.30;59.80;;;;;;5035015;28;20037;-76
2023/07/02 11:57:22;;;;;;;9.18;4.75;;;30.20;59.80;;;;;;5034992;28;20566;-76
2023/07/02 11:59:49;;;;;;;9.90;5.20;;;30.20;59.90;;;;;;5034760;28;20395;-75
2023/07/02 12:02:15;;;;;;;9.63;4.80;;;30.30;59.70;;;;;;5035338;28;20048;-77
2023/07/02 12:04:41;;;;;;;11.18;5.72;;;30.20;59.90;;;;;;5035043;28;20029;-75
2023/07/02 12:07:06;;;;;;;9.68;5.82;;;30.20;59.90;;;;;;5034707;28;20064;-77
2023/07/02 12:09:32;;;;;;;9.90;5.28;;;30.30;59.80;;;;;;5034976;28;20048;-74
2023/07/02 12:11:58;;;;;;;10.50;5.53;;;30.40;60.00;;;;;;5034742;28;20037;-75
2023/07/02 12:14:23;;;;;;;8.65;4.97;;;30.30;59.60;;;;;;5034699;28;20033;-75
2023/07/02 12:16:49;;;;;;;8.85;5.03;;;30.30;59.70;;;;;;5034713;28;20041;-75
2023/07/02 12:19:15;;;;;;;11.10;7.20;;;30.40;59.70;;;;;;5034604;28;20147;-77
2023/07/02 12:21:41;;;;;;;12.98;5.57;;;30.40;59.70;;;;;;5016716;28;20091;-75
2023/07/02 12:24:09;;;;;;;9.15;5.30;;;30.40;60.00;;;;;;5034541;28;20030;-75
2023/07/02 12:26:35;;;;;;;8.70;5.28;;;30.40;60.00;;;;;;5034238;28;20042;-76
2023/07/02 12:29:01;;;;;;;9.85;4.97;;;30.40;59.70;;;;;;5034492;28;20566;-75
2023/07/02 12:31:27;;;;;;;8.98;4.65;;;30.40;59.70;;;;;;5034484;28;20112;-76
2023/07/02 12:33:52;;;;;;;11.20;5.18;;;30.40;60.00;;;;;;5034438;28;20021;-76